TimeCST,TemperatureF,Dew PointF,Humidity,Sea Level PressureIn,VisibilityMPH,Wind Direction,Wind SpeedMPH,Gust SpeedMPH,PrecipitationIn,Events,Conditions,WindDirDegrees,DateUTC
12:15 AM,36.1,32.0,85,29.70,10.0,WNW,11.5,-,N/A,,Clear,300,2014-01-20 06:15:00
12:35 AM,36.1,32.0,85,29.70,10.0,WNW,16.1,20.7,N/A,,Clear,300,2014-01-20 06:35:00
12:55 AM,35.6,31.8,86,29.71,10.0,WNW,15.0,-,N/A,,Clear,300,2014-01-20 06:55:00
1:15 AM,34.7,31.6,89,29.72,10.0,WNW,12.7,21.9,N/A,,Clear,300,2014-01-20 07:15:00
1:35 AM,34.2,31.5,90,29.73,10.0,NW,18.4,26.5,N/A,,Clear,310,2014-01-20 07:35:00
1:55 AM,34.7,31.6,89,29.75,10.0,NW,15.0,23.0,N/A,,Mostly Cloudy,310,2014-01-20 07:55:00
2:15 AM,34.7,31.8,89,29.76,10.0,NW,11.5,-,N/A,,Overcast,320,2014-01-20 08:15:00
2:35 AM,34.2,31.8,91,29.77,10.0,NW,8.1,-,N/A,,Overcast,310,2014-01-20 08:35:00
2:55 AM,34.0,31.5,90,29.78,10.0,NW,9.2,-,N/A,,Overcast,310,2014-01-20 08:55:00
3:15 AM,33.3,30.9,91,29.78,10.0,WNW,6.9,-,N/A,,Overcast,300,2014-01-20 09:15:00
3:35 AM,31.6,29.8,93,29.79,10.0,West,5.8,-,N/A,,Mostly Cloudy,270,2014-01-20 09:35:00
3:55 AM,29.8,29.1,97,29.80,10.0,West,6.9,-,N/A,,Scattered Clouds,280,2014-01-20 09:55:00
4:15 AM,30.2,29.3,96,29.80,10.0,West,8.1,-,N/A,,Clear,280,2014-01-20 10:15:00
4:35 AM,30.4,29.1,95,29.80,10.0,WNW,8.1,-,N/A,,Clear,300,2014-01-20 10:35:00
4:55 AM,30.6,28.9,94,29.82,10.0,WNW,9.2,-,N/A,,Clear,300,2014-01-20 10:55:00
5:15 AM,30.6,28.9,94,29.82,10.0,NW,9.2,-,N/A,,Clear,310,2014-01-20 11:15:00
5:35 AM,30.0,28.4,94,29.82,10.0,WNW,6.9,-,N/A,,Clear,300,2014-01-20 11:35:00
5:55 AM,29.7,28.2,94,29.84,10.0,WNW,4.6,-,N/A,,Clear,300,2014-01-20 11:55:00
6:15 AM,27.9,27.1,97,29.85,10.0,West,4.6,-,N/A,,Clear,280,2014-01-20 12:15:00
6:35 AM,27.0,27.0,100,29.86,10.0,WSW,4.6,-,N/A,,Clear,250,2014-01-20 12:35:00
6:55 AM,27.0,27.0,100,29.86,10.0,WSW,5.8,-,N/A,,Clear,250,2014-01-20 12:55:00
7:15 AM,27.1,27.1,100,29.86,7.0,West,6.9,-,N/A,,Clear,260,2014-01-20 13:15:00
7:35 AM,27.5,27.5,100,29.86,10.0,WSW,6.9,-,N/A,,Clear,250,2014-01-20 13:35:00
7:55 AM,29.1,28.0,96,29.86,10.0,SW,5.8,-,N/A,,Clear,230,2014-01-20 13:55:00
8:15 AM,29.8,28.0,93,29.87,10.0,WSW,5.8,-,N/A,,Clear,250,2014-01-20 14:15:00
8:35 AM,31.1,28.6,90,29.89,10.0,WSW,9.2,-,N/A,,Clear,250,2014-01-20 14:35:00
8:55 AM,31.8,29.1,90,29.89,10.0,West,10.4,-,N/A,,Clear,260,2014-01-20 14:55:00
9:15 AM,32.7,29.5,88,29.90,10.0,West,9.2,-,N/A,,Clear,260,2014-01-20 15:15:00
9:35 AM,33.8,30.0,86,29.91,10.0,West,10.4,-,N/A,,Clear,260,2014-01-20 15:35:00
9:55 AM,34.7,30.2,84,29.92,10.0,West,10.4,-,N/A,,Clear,270,2014-01-20 15:55:00
10:15 AM,35.1,31.1,85,29.93,10.0,West,11.5,-,N/A,,Clear,270,2014-01-20 16:15:00
10:35 AM,36.1,31.5,83,29.93,10.0,WNW,11.5,-,N/A,,Clear,290,2014-01-20 16:35:00
10:55 AM,36.1,31.3,83,29.93,10.0,WNW,9.2,-,N/A,,Clear,290,2014-01-20 16:55:00
11:15 AM,36.7,31.8,83,29.92,10.0,WNW,8.1,-,N/A,,Clear,290,2014-01-20 17:15:00
11:35 AM,37.4,32.0,81,29.91,10.0,WNW,11.5,-,N/A,,Clear,290,2014-01-20 17:35:00
11:55 AM,37.4,32.0,81,29.91,10.0,WNW,11.5,-,N/A,,Clear,300,2014-01-20 17:55:00
12:15 PM,38.1,32.2,79,29.91,10.0,WNW,10.4,16.1,N/A,,Scattered Clouds,300,2014-01-20 18:15:00
12:35 PM,37.4,31.6,80,29.91,10.0,NW,13.8,18.4,N/A,,Mostly Cloudy,320,2014-01-20 18:35:00
12:55 PM,36.9,31.3,80,29.91,10.0,NW,12.7,17.3,N/A,,Overcast,320,2014-01-20 18:55:00
1:15 PM,36.5,31.1,81,29.91,10.0,NNW,11.5,-,N/A,,Mostly Cloudy,330,2014-01-20 19:15:00
1:35 PM,37.4,31.3,79,29.91,10.0,NW,11.5,16.1,N/A,,Mostly Cloudy,310,2014-01-20 19:35:00
1:55 PM,36.9,31.5,81,29.90,10.0,NNW,9.2,-,N/A,,Scattered Clouds,330,2014-01-20 19:55:00
2:15 PM,36.5,31.3,81,29.91,10.0,NW,8.1,-,N/A,,Clear,310,2014-01-20 20:15:00
2:35 PM,36.0,31.1,82,29.91,10.0,NW,9.2,-,N/A,,Clear,310,2014-01-20 20:35:00
2:55 PM,36.1,31.6,84,29.91,10.0,NW,5.8,-,N/A,,Scattered Clouds,310,2014-01-20 20:55:00
3:15 PM,35.8,31.3,84,29.92,10.0,NW,6.9,-,N/A,,Overcast,310,2014-01-20 21:15:00
3:35 PM,35.6,31.8,86,29.91,10.0,WNW,4.6,-,N/A,,Overcast,300,2014-01-20 21:35:00
3:55 PM,35.6,32.0,87,29.92,10.0,NNW,5.8,-,N/A,,Overcast,330,2014-01-20 21:55:00
4:15 PM,34.7,31.6,89,29.92,10.0,NNW,4.6,-,N/A,,Overcast,330,2014-01-20 22:15:00
4:35 PM,34.3,31.5,89,29.92,10.0,Calm,Calm,-,N/A,,Overcast,0,2014-01-20 22:35:00
4:55 PM,33.8,31.3,90,29.92,10.0,Calm,Calm,-,N/A,,Overcast,0,2014-01-20 22:55:00
5:15 PM,33.3,31.3,92,29.92,10.0,Calm,Calm,-,N/A,,Overcast,0,2014-01-20 23:15:00
5:35 PM,32.5,31.8,97,29.93,10.0,NNW,5.8,-,N/A,,Overcast,340,2014-01-20 23:35:00
5:55 PM,32.9,31.5,94,29.93,10.0,North,4.6,-,N/A,,Overcast,350,2014-01-20 23:55:00
6:15 PM,32.4,31.5,96,29.93,10.0,North,4.6,-,N/A,,Overcast,360,2014-01-21 00:15:00
6:35 PM,32.4,31.1,95,29.93,10.0,NNE,6.9,-,N/A,,Overcast,20,2014-01-21 00:35:00
6:55 PM,32.0,30.9,96,29.93,10.0,NNE,8.1,-,N/A,,Overcast,20,2014-01-21 00:55:00
7:15 PM,32.0,30.6,94,29.94,5.0,North,5.8,-,N/A,Snow,Light Snow,10,2014-01-21 01:15:00
7:35 PM,30.9,30.7,99,29.93,1.2,NNE,9.2,-,N/A,Snow,Light Snow,20,2014-01-21 01:35:00
7:55 PM,30.2,30.2,100,29.93,2.5,NNE,6.9,-,N/A,Snow,Light Snow,30,2014-01-21 01:55:00
8:15 PM,30.2,30.2,100,29.93,3.0,NNE,8.1,-,N/A,Snow,Light Snow,20,2014-01-21 02:15:00
8:35 PM,30.0,30.0,100,29.94,1.0,North,9.2,-,0.01,Snow,Light Snow,360,2014-01-21 02:35:00
8:55 PM,24.4,23.9,98,29.96,0.8,North,25.3,-,0.01,Snow,Snow,10,2014-01-21 02:55:00
9:15 PM,21.7,21.0,97,29.96,0.8,NNE,25.3,29.9,N/A,Snow,Snow,20,2014-01-21 03:15:00
9:35 PM,19.9,19.2,97,29.99,0.8,North,25.3,-,N/A,Snow,Snow,10,2014-01-21 03:35:00
9:55 PM,18.9,18.1,97,30.00,0.8,North,25.3,33.4,N/A,Snow,Light Snow,10,2014-01-21 03:55:00
10:15 PM,17.6,16.5,96,30.02,0.8,North,27.6,32.2,N/A,Snow,Snow,10,2014-01-21 04:15:00
10:35 PM,16.7,15.4,95,30.03,1.0,North,27.6,35.7,N/A,Snow,Light Snow,10,2014-01-21 04:35:00
10:55 PM,16.2,14.9,95,30.05,-9999.0,North,31.1,35.7,N/A,,Unknown,10,2014-01-21 04:55:00
11:15 PM,15.4,14.2,95,30.07,-9999.0,North,26.5,34.5,N/A,,Overcast,10,2014-01-21 05:15:00
11:35 PM,14.9,13.3,93,30.09,-9999.0,North,25.3,33.4,N/A,,Overcast,360,2014-01-21 05:35:00
11:55 PM,14.2,12.9,95,30.10,1.2,North,23.0,34.5,N/A,Snow,Light Snow,360,2014-01-21 05:55:00